SWR41H LSZH-EKCH
Flight info
| Callsign | SWR41H |
|---|---|
| Flight time | N/A |
| Altitude | 34000 |
| Route | DEGES Z1 ETAGO DCT HAREM/N0439F350 DCT LOHRE DCT BERXO DCT MAKEL N851 GESKA Z711 MONAK |
| Aircraft | A21N/M-SDE2E3FGHIRWXY/LB1 |
Departure
| Time | 2026-05-04 18:04 |
|---|---|
| Airport | Zürich Airport (LSZH) |
Arrival
| Time | N/A |
|---|---|
| Airport | Copenhagen Kastrup Airport (EKCH) |
| Time | Latitude | Longitude | Altitude | Speed | Heading |
|---|---|---|---|---|---|
| 2026-05-04 17:42 | 47.45336 | 8.55945 | 1402 ft | 0 kts | 6° |
| 2026-05-04 17:55 | 47.45331 | 8.55944 | 1402 ft | 2 kts | 6° |
| 2026-05-04 17:55 | 47.45311 | 8.55941 | 1405 ft | 3 kts | 6° |
| 2026-05-04 17:56 | 47.45292 | 8.55938 | 1411 ft | 3 kts | 3° |
| 2026-05-04 17:56 | 47.45272 | 8.55939 | 1409 ft | 3 kts | 346° |
| 2026-05-04 17:56 | 47.45255 | 8.55949 | 1407 ft | 3 kts | 314° |
| 2026-05-04 17:56 | 47.45248 | 8.55968 | 1410 ft | 1 kts | 276° |
| 2026-05-04 17:57 | 47.45247 | 8.55987 | 1409 ft | 3 kts | 276° |
| 2026-05-04 17:57 | 47.45245 | 8.56004 | 1409 ft | 0 kts | 276° |
| 2026-05-04 17:59 | 47.45253 | 8.55867 | 1404 ft | 13 kts | 276° |
| 2026-05-04 18:00 | 47.45266 | 8.55720 | 1402 ft | 16 kts | 277° |
| 2026-05-04 18:00 | 47.45286 | 8.55555 | 1402 ft | 17 kts | 309° |
| 2026-05-04 18:00 | 47.45408 | 8.55482 | 1408 ft | 21 kts | 341° |
| 2026-05-04 18:00 | 47.45543 | 8.55397 | 1404 ft | 22 kts | 334° |
| 2026-05-04 18:01 | 47.45659 | 8.55347 | 1403 ft | 13 kts | 36° |
| 2026-05-04 18:01 | 47.45663 | 8.55493 | 1403 ft | 17 kts | 97° |
| 2026-05-04 18:01 | 47.45649 | 8.55681 | 1405 ft | 20 kts | 96° |
| 2026-05-04 18:02 | 47.45617 | 8.56155 | 1411 ft | 25 kts | 95° |
| 2026-05-04 18:02 | 47.45667 | 8.56274 | 1413 ft | 17 kts | 10° |
| 2026-05-04 18:02 | 47.45799 | 8.56295 | 1405 ft | 20 kts | 5° |
| 2026-05-04 18:02 | 47.45939 | 8.56311 | 1403 ft | 21 kts | 5° |
| 2026-05-04 18:03 | 47.46083 | 8.56336 | 1407 ft | 11 kts | 9° |
| 2026-05-04 18:03 | 47.46173 | 8.56348 | 1413 ft | 15 kts | 355° |
| 2026-05-04 18:03 | 47.46275 | 8.56249 | 1410 ft | 32 kts | 317° |
| 2026-05-04 18:03 | 47.46637 | 8.55754 | 1410 ft | 109 kts | 317° |
| 2026-05-04 18:04 | 47.47341 | 8.54795 | 1410 ft | 161 kts | 317° |
| 2026-05-04 18:04 | 47.48217 | 8.53643 | 1924 ft | 165 kts | 316° |
| 2026-05-04 18:04 | 47.50216 | 8.51641 | 3039 ft | 193 kts | 328° |
| 2026-05-04 18:05 | 47.51424 | 8.50521 | 3510 ft | 215 kts | 326° |
| 2026-05-04 18:05 | 47.52749 | 8.49438 | 4238 ft | 227 kts | 340° |
| 2026-05-04 18:05 | 47.54339 | 8.49320 | 5100 ft | 235 kts | 13° |
| 2026-05-04 18:05 | 47.55813 | 8.50447 | 5736 ft | 252 kts | 45° |
| 2026-05-04 18:06 | 47.56694 | 8.55509 | 6913 ft | 274 kts | 109° |
| 2026-05-04 18:06 | 47.56040 | 8.58170 | 7810 ft | 277 kts | 108° |
| 2026-05-04 18:06 | 47.55920 | 8.61023 | 8709 ft | 284 kts | 84° |
| 2026-05-04 18:07 | 47.56310 | 8.63910 | 9575 ft | 289 kts | 80° |
| 2026-05-04 18:07 | 47.56592 | 8.66875 | 10293 ft | 295 kts | 92° |
| 2026-05-04 18:07 | 47.56315 | 8.69950 | 10652 ft | 311 kts | 108° |
| 2026-05-04 18:07 | 47.55343 | 8.72874 | 10933 ft | 326 kts | 130° |
| 2026-05-04 18:08 | 47.53780 | 8.75358 | 11241 ft | 345 kts | 133° |
| 2026-05-04 18:08 | 47.52562 | 8.78487 | 11855 ft | 358 kts | 114° |
| 2026-05-04 18:08 | 47.51735 | 8.81995 | 12605 ft | 365 kts | 111° |
| 2026-05-04 18:08 | 47.50887 | 8.85564 | 13351 ft | 370 kts | 112° |
| 2026-05-04 18:09 | 47.48997 | 8.92756 | 14727 ft | 380 kts | 115° |
| 2026-05-04 18:09 | 47.46953 | 9.00054 | 16077 ft | 389 kts | 115° |
| 2026-05-04 18:10 | 47.45901 | 9.03766 | 16746 ft | 393 kts | 115° |